Time;durP1;ratioP1;P1;durP2;ratioP2;P2;SDS_P1;SDS_P2;PMS_P1;PMS_P2;Temp;Humidity;BMP_temperature;BMP_pressure;BME280_temperature;BME280_humidity;BME280_pressure;Samples;Min_cycle;Max_cycle;Signal;HPM_P1;HPM_P2
2023/08/16 00:01:36;;;;;;;7.60;5.50;;;;;;;23.59;48.42;100367.55;103007;1260;111036;-66
2023/08/16 00:04:04;;;;;;;7.50;5.50;;;;;;;23.57;48.49;100370.57;102891;1260;137945;-66
2023/08/16 00:06:31;;;;;;;7.30;5.00;;;;;;;23.55;48.68;100365.02;102991;1263;97797;-65
2023/08/16 00:08:58;;;;;;;10.50;5.70;;;;;;;23.53;48.65;100365.04;102891;1263;138585;-66
2023/08/16 00:11:27;;;;;;;8.20;5.60;;;;;;;23.48;48.95;100362.70;102993;1263;97690;-67
2023/08/16 00:13:54;;;;;;;12.00;5.50;;;;;;;23.47;49.12;100362.47;103019;1260;111875;-66
2023/08/16 00:16:22;;;;;;;8.00;6.00;;;;;;;23.44;49.42;100362.92;102885;1257;138795;-65
2023/08/16 00:18:50;;;;;;;8.50;5.50;;;;;;;23.41;49.29;100363.21;103049;1260;97798;-66
2023/08/16 00:21:16;;;;;;;11.30;5.80;;;;;;;23.38;49.72;100363.59;103192;1259;137983;-66
2023/08/16 00:23:43;;;;;;;13.90;5.90;;;;;;;23.35;49.45;100366.73;103039;1261;97809;-66
2023/08/16 00:26:10;;;;;;;10.00;5.50;;;;;;;23.32;49.59;100365.73;103023;1260;111617;-65
2023/08/16 00:28:38;;;;;;;10.50;6.00;;;;;;;23.29;49.73;100366.84;102888;1260;138323;-65
2023/08/16 00:31:06;;;;;;;17.00;6.10;;;;;;;23.26;49.78;100363.56;102978;1260;97709;-66
2023/08/16 00:33:33;;;;;;;11.70;6.10;;;;;;;23.22;50.07;100367.74;102922;1262;138621;-66
2023/08/16 00:36:00;;;;;;;11.40;5.80;;;;;;;23.18;50.26;100364.77;102958;1263;97847;-66
2023/08/16 00:38:27;;;;;;;8.70;6.10;;;;;;;23.14;50.29;100361.91;102908;1264;139626;-66
2023/08/16 00:40:54;;;;;;;8.70;5.80;;;;;;;23.08;50.42;100361.28;103100;1259;107779;-66
2023/08/16 00:43:21;;;;;;;10.60;5.90;;;;;;;23.04;50.57;100366.44;102874;1264;97649;-66
2023/08/16 00:45:50;;;;;;;13.60;5.70;;;;;;;23.00;50.75;100364.35;103252;1263;138065;-68
2023/08/16 00:48:20;;;;;;;8.40;5.80;;;;;;;22.95;51.02;100369.30;102863;1264;97847;-66
2023/08/16 00:50:48;;;;;;;9.90;6.40;;;;;;;22.91;51.14;100367.48;103056;1265;138169;-67
2023/08/16 00:53:18;;;;;;;13.40;6.20;;;;;;;22.86;51.57;100370.89;103260;1263;107278;-67
2023/08/16 00:55:46;;;;;;;17.00;5.90;;;;;;;22.83;51.53;100366.73;103025;1264;97789;-67
2023/08/16 00:58:14;;;;;;;13.10;6.00;;;;;;;22.80;51.48;100360.58;102716;1263;137980;-66
2023/08/16 01:00:41;;;;;;;9.60;6.00;;;;;;;22.78;51.63;100356.14;102845;1264;97823;-66
2023/08/16 01:03:08;;;;;;;14.10;5.90;;;;;;;22.73;51.69;100364.30;102829;1263;138423;-67
2023/08/16 01:05:36;;;;;;;10.80;5.90;;;;;;;22.71;51.68;100365.04;102940;1261;108572;-67
2023/08/16 01:08:04;;;;;;;8.70;5.90;;;;;;;22.68;51.84;100370.23;102982;1263;97799;-67
2023/08/16 01:10:40;;;;;;;8.20;5.70;;;;;;;22.64;52.00;100372.33;102889;1261;137863;-67
2023/08/16 01:13:11;;;;;;;9.40;5.90;;;;;;;22.61;52.05;100372.17;102848;1264;97768;-67
2023/08/16 01:15:43;;;;;;;8.80;6.50;;;;;;;22.58;52.19;100373.88;102924;1263;137885;-67
2023/08/16 01:18:11;;;;;;;10.20;5.40;;;;;;;22.54;52.37;100375.77;102965;1259;106526;-67
2023/08/16 01:20:40;;;;;;;12.10;6.20;;;;;;;22.51;52.50;100374.25;103162;1265;139399;-65
2023/08/16 01:23:12;;;;;;;7.10;5.70;;;;;;;22.47;52.56;100369.65;103054;1261;108386;-67
2023/08/16 01:25:48;;;;;;;9.80;6.30;;;;;;;22.42;52.74;100369.12;102970;1263;97802;-67
2023/08/16 01:28:16;;;;;;;11.50;5.60;;;;;;;22.38;52.99;100365.91;102822;1263;137840;-67
2023/08/16 01:31:35;;;;;;;10.00;6.10;;;;;;;22.35;53.22;100365.63;102880;1263;108519;-67
2023/08/16 01:34:05;;;;;;;9.10;6.20;;;;;;;22.29;53.47;100363.40;102900;1263;138283;-67
2023/08/16 01:36:32;;;;;;;10.40;5.90;;;;;;;22.25;53.60;100364.64;102834;1260;107660;-67
2023/08/16 01:38:59;;;;;;;16.00;6.10;;;;;;;22.22;53.63;100366.09;102945;1261;138421;-67
2023/08/16 01:41:33;;;;;;;11.00;5.70;;;;;;;22.19;53.74;100365.46;102984;1263;111413;-67
2023/08/16 01:44:01;;;;;;;14.30;6.20;;;;;;;22.15;53.74;100366.84;102914;1260;107763;-67
2023/08/16 01:46:29;;;;;;;12.80;6.30;;;;;;;22.12;53.93;100364.96;102840;1263;138265;-67
2023/08/16 01:49:00;;;;;;;18.20;6.20;;;;;;;22.09;54.11;100362.77;103052;1264;109243;-67
2023/08/16 01:51:28;;;;;;;12.00;6.20;;;;;;;22.05;54.24;100365.13;102921;1261;138134;-67
2023/08/16 01:53:56;;;;;;;9.50;6.20;;;;;;;22.02;54.37;100364.30;102972;1261;112115;-67
2023/08/16 01:56:23;;;;;;;10.50;6.60;;;;;;;22.00;54.39;100360.92;102853;1263;138314;-68
2023/08/16 01:58:50;;;;;;;15.30;6.80;;;;;;;21.96;54.38;100360.50;103081;1261;98156;-67
2023/08/16 02:01:17;;;;;;;9.70;6.10;;;;;;;21.93;54.38;100362.19;102885;1264;108865;-67
2023/08/16 02:03:44;;;;;;;12.30;6.50;;;;;;;21.91;54.56;100363.76;102955;1263;138583;-67
2023/08/16 02:06:13;;;;;;;12.80;6.30;;;;;;;21.89;54.42;100364.46;103032;1263;111955;-67
2023/08/16 02:08:40;;;;;;;9.10;6.30;;;;;;;21.86;54.63;100364.65;102902;1261;138616;-67
2023/08/16 02:11:07;;;;;;;14.00;6.50;;;;;;;21.83;54.86;100358.33;103043;1263;97885;-66
2023/08/16 05:44:16;;;;;;;16.50;6.10;;;;;;;36.16;29.97;100348.16;102824;1259;138229;-66
2023/08/16 07:17:26;;;;;;;19.90;6.00;;;;;;;44.44;19.55;100368.85;100617;1291;635354;-66
2023/08/16 07:19:54;;;;;;;20.20;5.80;;;;;;;44.60;19.85;100364.58;102624;1266;137503;-68
2023/08/16 07:22:24;;;;;;;17.60;5.70;;;;;;;44.91;19.65;100364.38;103568;1264;100044;-68
2023/08/16 07:24:51;;;;;;;14.50;5.50;;;;;;;45.13;19.14;100368.09;102949;1264;94733;-69
2023/08/16 09:19:16;;;;;;;12.80;4.90;;;;;;;40.49;21.46;100346.31;100690;1285;636696;-70
2023/08/16 13:04:44;;;;;;;9.70;4.70;;;;;;;36.43;26.83;100308.80;100432;1285;644433;-63
2023/08/16 13:07:21;;;;;;;6.20;4.90;;;;;;;36.54;26.82;100319.38;102549;1263;137166;-68
